Time;durP1;ratioP1;P1;durP2;ratioP2;P2;SDS_P1;SDS_P2;PMS_P1;PMS_P2;Temp;Humidity;BMP_temperature;BMP_pressure;BME280_temperature;BME280_humidity;BME280_pressure;Samples;Min_cycle;Max_cycle;Signal;HPM_P1;HPM_P2
2021/09/25 00:00:09;;;;;;;24.60;6.85;;;17.20;99.90;;;;;;5082081;28;20048;-66
2021/09/25 00:02:34;;;;;;;23.90;7.38;;;17.10;99.90;;;;;;5073021;28;20051;-66
2021/09/25 00:05:00;;;;;;;21.67;6.63;;;17.10;99.90;;;;;;5075641;28;20480;-66
2021/09/25 00:07:26;;;;;;;34.35;8.15;;;17.20;99.90;;;;;;5094446;28;20063;-66
2021/09/25 00:09:52;;;;;;;28.23;7.22;;;17.10;99.90;;;;;;5076462;28;20131;-66
2021/09/25 00:12:18;;;;;;;23.15;6.43;;;17.10;99.90;;;;;;5080529;28;20044;-66
2021/09/25 00:14:44;;;;;;;20.52;6.82;;;17.10;99.90;;;;;;5078971;28;20511;-66
2021/09/25 00:17:12;;;;;;;23.17;6.25;;;17.10;99.90;;;;;;5078315;28;20109;-66
2021/09/25 00:19:39;;;;;;;23.25;7.25;;;17.10;99.90;;;;;;5077752;28;20044;-66
2021/09/25 00:22:04;;;;;;;19.35;7.28;;;17.10;99.90;;;;;;5087838;28;20044;-66
2021/09/25 00:24:31;;;;;;;24.75;7.65;;;17.10;99.90;;;;;;5093895;28;20043;-66
2021/09/25 00:26:56;;;;;;;27.60;8.82;;;17.00;99.90;;;;;;5069969;28;20044;-67
2021/09/25 00:29:22;;;;;;;22.55;7.00;;;17.10;99.90;;;;;;5072478;28;20044;-67
2021/09/25 00:31:48;;;;;;;25.08;7.57;;;17.00;99.90;;;;;;5086811;28;20052;-67
2021/09/25 00:34:14;;;;;;;19.48;6.82;;;17.10;99.90;;;;;;5089460;28;20059;-67
2021/09/25 00:36:40;;;;;;;25.33;7.53;;;17.10;99.90;;;;;;5090450;28;20510;-67
2021/09/25 00:39:06;;;;;;;27.83;7.78;;;17.00;99.90;;;;;;5088199;28;20037;-66
2021/09/25 00:41:32;;;;;;;25.38;7.75;;;17.10;99.90;;;;;;5075816;28;20041;-66
2021/09/25 00:43:58;;;;;;;25.08;7.53;;;17.10;99.90;;;;;;5101486;28;20495;-66
2021/09/25 00:46:24;;;;;;;23.25;8.13;;;17.10;99.90;;;;;;5090683;28;20056;-66
2021/09/25 00:48:50;;;;;;;23.45;7.22;;;17.10;99.90;;;;;;5069531;28;20044;-67
2021/09/25 00:51:17;;;;;;;22.80;7.30;;;17.10;99.90;;;;;;5091557;28;20041;-66
2021/09/25 00:53:43;;;;;;;23.50;7.73;;;17.10;99.90;;;;;;5093244;28;20443;-67
2021/09/25 00:56:11;;;;;;;19.45;6.97;;;17.10;99.90;;;;;;5075334;28;20648;-66
2021/09/25 00:58:38;;;;;;;26.13;7.88;;;17.10;99.90;;;;;;5078172;28;20067;-66
2021/09/25 01:01:05;;;;;;;22.92;8.15;;;17.10;99.90;;;;;;5072595;28;20067;-66
2021/09/25 01:03:31;;;;;;;22.13;7.93;;;17.20;99.90;;;;;;5095586;28;20059;-66
2021/09/25 01:05:57;;;;;;;23.02;7.28;;;17.10;99.90;;;;;;5092748;28;20075;-67
2021/09/25 01:08:23;;;;;;;23.58;7.82;;;17.10;99.90;;;;;;5071712;28;20041;-67
2021/09/25 01:10:53;;;;;;;23.77;7.57;;;17.20;99.90;;;;;;5086700;28;20055;-66
2021/09/25 01:13:20;;;;;;;39.22;9.05;;;17.10;99.90;;;;;;5087756;28;20131;-66
2021/09/25 01:15:46;;;;;;;25.38;8.32;;;17.10;99.90;;;;;;5092956;28;20060;-66
2021/09/25 01:18:12;;;;;;;27.33;7.85;;;17.20;99.90;;;;;;5086388;28;20032;-66
2021/09/25 01:20:38;;;;;;;21.80;8.18;;;17.20;99.90;;;;;;5086649;28;20040;-66
2021/09/25 01:23:05;;;;;;;20.30;7.80;;;17.20;99.90;;;;;;5096552;28;20033;-67
2021/09/25 01:25:32;;;;;;;23.90;8.88;;;17.10;99.90;;;;;;5085889;28;20119;-67
2021/09/25 01:27:58;;;;;;;26.33;8.73;;;17.10;99.90;;;;;;5091469;28;20052;-67
2021/09/25 01:30:24;;;;;;;31.02;9.45;;;17.10;99.90;;;;;;5089102;28;20036;-66
2021/09/25 01:32:51;;;;;;;23.65;7.88;;;17.10;99.90;;;;;;5067491;28;20097;-67
2021/09/25 01:35:22;;;;;;;33.78;9.57;;;17.10;99.90;;;;;;5082157;28;20047;-66
2021/09/25 01:37:50;;;;;;;30.88;9.23;;;17.10;99.90;;;;;;5087836;28;20052;-66
2021/09/25 01:40:16;;;;;;;27.40;8.85;;;17.10;99.90;;;;;;5089499;28;20045;-67
2021/09/25 01:42:43;;;;;;;27.00;9.48;;;17.10;99.90;;;;;;5068446;28;20053;-66
2021/09/25 01:45:10;;;;;;;26.75;9.60;;;17.10;99.90;;;;;;5079480;28;20576;-67
2021/09/25 01:47:37;;;;;;;27.85;8.55;;;17.10;99.90;;;;;;5071402;28;20086;-66
2021/09/25 01:50:04;;;;;;;;;;;17.10;99.90;;;;;;5088273;28;20067;-67
2021/09/25 01:52:30;;;;;;;25.95;8.60;;;17.20;99.90;;;;;;5068986;28;20429;-66
2021/09/25 01:54:55;;;;;;;24.13;8.60;;;17.20;99.90;;;;;;5085583;28;20076;-66
2021/09/25 01:57:21;;;;;;;29.15;8.40;;;17.20;99.90;;;;;;5086100;28;20067;-67
2021/09/25 01:59:47;;;;;;;26.15;9.65;;;17.20;99.90;;;;;;5067877;28;20144;-67
2021/09/25 02:02:13;;;;;;;27.25;10.32;;;17.20;99.90;;;;;;5087041;28;20282;-67
2021/09/25 02:04:46;;;;;;;26.67;10.07;;;17.20;99.90;;;;;;5094346;28;20036;-66
2021/09/25 02:07:13;;;;;;;27.58;8.93;;;17.30;99.90;;;;;;5096033;28;20099;-67
2021/09/25 02:09:39;;;;;;;24.98;9.30;;;17.20;99.90;;;;;;5085640;28;20051;-67
2021/09/25 02:12:05;;;;;;;28.23;9.98;;;17.30;99.90;;;;;;5068169;28;20053;-66
2021/09/25 02:14:31;;;;;;;25.65;8.73;;;17.30;99.90;;;;;;5085636;28;20055;-67
2021/09/25 02:16:56;;;;;;;26.85;10.18;;;17.20;99.90;;;;;;5091289;28;20040;-67
2021/09/25 02:19:22;;;;;;;33.00;10.57;;;17.30;99.90;;;;;;5096122;28;20036;-66
2021/09/25 02:21:49;;;;;;;26.55;9.80;;;17.20;99.90;;;;;;5090970;28;20050;-66
2021/09/25 02:24:15;;;;;;;33.72;10.63;;;17.20;99.90;;;;;;5078800;28;20036;-66
2021/09/25 02:26:42;;;;;;;30.52;10.25;;;17.30;99.90;;;;;;5085852;28;20072;-67
2021/09/25 02:29:08;;;;;;;36.97;10.67;;;17.20;99.90;;;;;;5067420;28;20044;-67
2021/09/25 02:31:34;;;;;;;31.00;9.32;;;17.30;99.90;;;;;;5078157;28;20048;-67
2021/09/25 02:34:00;;;;;;;33.70;10.00;;;17.30;99.90;;;;;;5085785;28;20516;-67
2021/09/25 02:36:26;;;;;;;28.80;9.63;;;17.30;99.90;;;;;;5085295;28;20104;-67
2021/09/25 02:38:52;;;;;;;27.73;8.85;;;17.20;99.90;;;;;;5086506;28;20044;-67
2021/09/25 02:41:17;;;;;;;31.23;8.80;;;17.20;99.90;;;;;;5094914;28;20478;-67
2021/09/25 02:43:43;;;;;;;26.00;8.90;;;17.20;99.90;;;;;;5068045;28;20048;-66
2021/09/25 02:46:09;;;;;;;23.20;8.48;;;17.20;99.90;;;;;;5085119;28;20040;-66
2021/09/25 02:48:35;;;;;;;26.45;8.52;;;17.10;99.90;;;;;;5092947;28;20044;-67
2021/09/25 02:51:01;;;;;;;25.08;9.48;;;17.10;99.90;;;;;;5086252;28;20040;-66
2021/09/25 02:53:26;;;;;;;28.08;7.93;;;17.00;99.90;;;;;;5094268;28;20346;-67
2021/09/25 02:55:52;;;;;;;27.73;8.13;;;17.00;99.90;;;;;;5085717;28;20104;-67
2021/09/25 02:58:18;;;;;;;25.05;8.73;;;17.10;99.90;;;;;;5071694;28;20055;-67
2021/09/25 03:00:44;;;;;;;39.10;9.13;;;16.90;99.90;;;;;;5067222;28;20514;-66
2021/09/25 03:03:10;;;;;;;22.92;7.70;;;16.90;99.90;;;;;;5066987;28;20122;-66
2021/09/25 03:05:36;;;;;;;32.40;9.07;;;16.80;99.90;;;;;;5084645;28;20052;-67
2021/09/25 03:08:01;;;;;;;30.75;8.65;;;16.80;99.90;;;;;;5093809;28;20040;-66
2021/09/25 03:10:27;;;;;;;25.08;8.02;;;16.80;99.90;;;;;;5100353;28;20071;-67
2021/09/25 03:12:53;;;;;;;20.88;9.20;;;16.80;99.90;;;;;;5086352;28;20090;-67
2021/09/25 03:15:18;;;;;;;32.58;8.88;;;16.90;99.90;;;;;;5084333;28;20048;-66
2021/09/25 03:17:44;;;;;;;26.90;10.50;;;16.90;99.90;;;;;;5073475;28;20044;-66
2021/09/25 03:20:11;;;;;;;30.27;9.20;;;16.90;99.90;;;;;;5066704;28;20068;-67
2021/09/25 03:22:36;;;;;;;27.10;9.35;;;16.90;99.90;;;;;;5083006;28;20082;-67
2021/09/25 03:25:07;;;;;;;29.35;9.18;;;16.90;99.90;;;;;;5096950;28;20131;-66
2021/09/25 03:27:34;;;;;;;22.85;8.35;;;16.90;99.90;;;;;;5084715;28;20048;-67
2021/09/25 03:30:00;;;;;;;33.47;10.13;;;17.00;99.90;;;;;;5084784;28;20415;-66
2021/09/25 03:32:26;;;;;;;32.90;9.68;;;17.00;99.90;;;;;;5090244;28;20066;-67
2021/09/25 03:34:51;;;;;;;30.42;8.82;;;17.00;99.90;;;;;;5084266;28;20067;-67
2021/09/25 03:37:17;;;;;;;31.38;9.10;;;17.00;99.90;;;;;;5084486;28;20469;-66
2021/09/25 03:39:43;;;;;;;33.13;10.40;;;17.00;99.90;;;;;;5073189;28;20045;-67
2021/09/25 03:42:08;;;;;;;26.73;8.85;;;17.00;99.90;;;;;;5084833;28;20118;-67
2021/09/25 03:44:34;;;;;;;27.60;10.15;;;17.00;99.90;;;;;;5065918;28;20045;-67
2021/09/25 03:47:00;;;;;;;30.35;8.65;;;17.00;99.90;;;;;;5084349;28;20055;-67
2021/09/25 03:49:26;;;;;;;22.70;9.65;;;17.00;99.90;;;;;;5073725;28;20450;-67
2021/09/25 03:51:51;;;;;;;27.40;9.63;;;17.00;99.90;;;;;;5088477;28;20440;-66
2021/09/25 03:54:17;;;;;;;28.88;9.30;;;17.00;99.90;;;;;;5071989;28;20160;-67
2021/09/25 03:56:43;;;;;;;30.98;9.85;;;17.00;99.90;;;;;;5093595;28;20044;-66
2021/09/25 03:59:09;;;;;;;21.45;8.55;;;17.00;99.90;;;;;;5086149;28;20041;-66
2021/09/25 04:01:35;;;;;;;37.60;10.68;;;17.00;99.90;;;;;;5079654;28;20123;-67
2021/09/25 04:04:00;;;;;;;31.92;10.23;;;16.90;99.90;;;;;;5082057;28;20049;-67
2021/09/25 04:06:26;;;;;;;26.83;9.23;;;16.80;99.90;;;;;;5092827;28;20427;-67
2021/09/25 04:08:53;;;;;;;31.70;9.27;;;16.80;99.90;;;;;;5075239;28;20480;-67
2021/09/25 04:11:19;;;;;;;29.23;8.63;;;16.80;99.90;;;;;;5070883;28;20055;-66
2021/09/25 04:13:45;;;;;;;31.58;9.68;;;16.80;99.90;;;;;;5092535;28;20129;-66
2021/09/25 04:16:11;;;;;;;33.50;11.15;;;16.70;99.90;;;;;;5065632;28;20048;-66
2021/09/25 04:18:37;;;;;;;39.42;10.30;;;16.60;99.90;;;;;;5083953;28;20076;-66
2021/09/25 04:21:02;;;;;;;28.33;9.90;;;16.50;99.90;;;;;;5084767;28;20086;-66
2021/09/25 04:23:28;;;;;;;31.75;10.73;;;16.50;99.90;;;;;;5066729;28;20052;-66
2021/09/25 04:25:54;;;;;;;34.15;11.73;;;16.50;99.90;;;;;;5052440;28;20044;-66
2021/09/25 04:28:19;;;;;;;31.83;11.13;;;16.50;99.90;;;;;;5077718;28;20066;-67
2021/09/25 04:30:45;;;;;;;33.47;11.90;;;16.40;99.90;;;;;;5073961;28;20048;-67
2021/09/25 04:33:11;;;;;;;30.17;11.57;;;16.30;99.90;;;;;;5066002;28;20056;-67
2021/09/25 04:35:38;;;;;;;48.78;13.50;;;16.30;99.90;;;;;;5083796;28;20062;-67
2021/09/25 04:38:04;;;;;;;37.10;10.90;;;16.30;99.90;;;;;;5084398;28;20075;-66
2021/09/25 04:40:31;;;;;;;35.85;12.52;;;16.30;99.90;;;;;;5093183;28;20189;-66
2021/09/25 04:42:57;;;;;;;29.73;11.60;;;16.30;99.90;;;;;;5084254;28;20049;-66
2021/09/25 04:45:23;;;;;;;40.88;13.68;;;16.30;99.90;;;;;;5084940;28;20098;-66
2021/09/25 04:47:50;;;;;;;40.67;11.80;;;16.20;99.90;;;;;;5087837;28;20044;-66
2021/09/25 04:50:18;;;;;;;34.58;12.07;;;16.30;99.90;;;;;;5098099;28;20511;-67
2021/09/25 04:52:44;;;;;;;38.00;11.93;;;16.40;99.90;;;;;;5100562;28;20040;-67
2021/09/25 04:55:10;;;;;;;36.42;12.73;;;16.40;99.90;;;;;;5089190;28;20092;-67
2021/09/25 04:57:36;;;;;;;41.00;13.05;;;16.40;99.90;;;;;;5094183;28;20404;-66
2021/09/25 05:00:06;;;;;;;34.85;11.77;;;16.40;99.90;;;;;;5083453;28;20067;-67
2021/09/25 05:02:32;;;;;;;39.58;11.80;;;16.30;99.90;;;;;;5084270;28;20401;-67
2021/09/25 05:04:58;;;;;;;38.33;11.55;;;16.30;99.90;;;;;;5095959;28;20369;-67
2021/09/25 05:07:23;;;;;;;33.78;12.02;;;16.20;99.90;;;;;;5093705;28;20036;-66
2021/09/25 05:09:49;;;;;;;34.58;13.15;;;16.20;99.90;;;;;;5098981;28;20403;-66
2021/09/25 05:12:15;;;;;;;34.97;12.60;;;16.20;99.90;;;;;;5092046;28;20047;-66
2021/09/25 05:14:41;;;;;;;41.08;15.65;;;16.20;99.90;;;;;;5076541;28;20040;-67
2021/09/25 05:17:08;;;;;;;37.53;12.43;;;16.20;99.90;;;;;;5074100;28;20056;-66
2021/09/25 05:19:33;;;;;;;38.13;13.32;;;16.30;99.90;;;;;;5076925;28;20039;-67
2021/09/25 05:21:59;;;;;;;37.58;12.93;;;16.40;99.90;;;;;;5089922;28;20044;-66
2021/09/25 05:24:25;;;;;;;34.28;11.95;;;16.40;99.90;;;;;;5080006;28;20095;-67
2021/09/25 05:26:51;;;;;;;34.97;13.38;;;16.40;99.90;;;;;;5095613;28;20097;-67
2021/09/25 05:29:17;;;;;;;50.78;14.20;;;16.40;99.90;;;;;;5094122;28;20036;-66
2021/09/25 05:31:44;;;;;;;44.95;13.60;;;16.30;99.90;;;;;;5088743;28;20055;-66
2021/09/25 05:34:10;;;;;;;34.75;13.18;;;16.30;99.90;;;;;;5074367;28;20049;-66
2021/09/25 05:36:35;;;;;;;43.53;12.77;;;16.30;99.90;;;;;;5080064;28;20080;-66
2021/09/25 05:39:02;;;;;;;37.95;13.05;;;16.30;99.90;;;;;;5073805;28;20131;-66
2021/09/25 05:41:28;;;;;;;42.63;12.52;;;16.30;99.90;;;;;;5070393;28;20075;-66
2021/09/25 05:43:55;;;;;;;36.75;13.65;;;16.30;99.90;;;;;;5070222;28;20115;-67
2021/09/25 05:46:21;;;;;;;38.22;12.45;;;16.40;99.90;;;;;;5068855;28;20133;-66
2021/09/25 05:48:48;;;;;;;32.30;12.75;;;16.40;99.90;;;;;;5065356;28;20053;-67
2021/09/25 05:51:14;;;;;;;32.05;12.07;;;16.40;99.90;;;;;;5074112;28;20091;-66
2021/09/25 05:53:40;;;;;;;35.38;12.82;;;16.40;99.90;;;;;;5071251;28;20045;-66
2021/09/25 05:56:06;;;;;;;25.85;11.30;;;16.40;99.90;;;;;;5065476;28;20133;-67
2021/09/25 05:58:32;;;;;;;33.63;13.18;;;16.40;99.90;;;;;;5064531;28;20378;-68
2021/09/25 06:00:58;;;;;;;33.55;12.13;;;16.40;99.90;;;;;;5065896;28;20047;-67
2021/09/25 06:03:23;;;;;;;44.70;13.30;;;16.40;99.90;;;;;;5065936;28;20037;-66
2021/09/25 06:05:49;;;;;;;38.65;12.60;;;16.40;99.90;;;;;;5066185;28;20068;-67
2021/09/25 06:08:15;;;;;;;37.40;12.07;;;16.40;99.90;;;;;;5066056;28;20037;-67
2021/09/25 06:10:41;;;;;;;33.60;13.30;;;16.50;99.90;;;;;;5063948;28;20100;-66
2021/09/25 06:13:10;;;;;;;38.03;12.90;;;16.50;99.90;;;;;;5066083;28;20060;-66
2021/09/25 06:15:36;;;;;;;31.38;11.93;;;16.60;99.90;;;;;;5065414;28;20527;-65
2021/09/25 06:18:03;;;;;;;33.13;12.77;;;16.60;99.90;;;;;;5064898;28;20043;-66
2021/09/25 06:20:29;;;;;;;35.22;12.85;;;16.60;99.90;;;;;;5065973;28;20131;-65
2021/09/25 06:22:55;;;;;;;36.05;12.95;;;16.70;99.90;;;;;;5065718;28;20045;-65
2021/09/25 06:25:21;;;;;;;30.77;11.93;;;16.70;99.90;;;;;;5079505;28;20060;-67
2021/09/25 06:27:47;;;;;;;28.15;12.27;;;16.70;99.90;;;;;;5064925;28;20044;-67
2021/09/25 06:30:13;;;;;;;36.38;12.60;;;16.80;99.90;;;;;;5075863;28;20049;-66
2021/09/25 06:32:38;;;;;;;30.85;13.05;;;16.80;99.90;;;;;;5067109;28;20041;-68
2021/09/25 06:35:06;;;;;;;41.05;12.40;;;16.80;99.90;;;;;;5062514;28;20110;-67
2021/09/25 06:37:32;;;;;;;28.48;12.07;;;16.90;99.90;;;;;;5085572;28;20495;-67
2021/09/25 06:39:58;;;;;;;31.25;13.65;;;16.90;99.90;;;;;;5072010;28;20496;-67
2021/09/25 06:42:23;;;;;;;31.27;12.48;;;17.00;99.90;;;;;;5085380;28;20088;-66
2021/09/25 06:44:49;;;;;;;28.15;12.38;;;17.00;99.90;;;;;;5085157;28;20046;-68
2021/09/25 06:47:15;;;;;;;31.38;12.40;;;17.00;99.90;;;;;;5088806;28;20036;-68
2021/09/25 06:49:40;;;;;;;28.83;12.25;;;17.10;99.90;;;;;;5090196;28;20058;-67
2021/09/25 06:52:06;;;;;;;30.00;12.60;;;17.10;99.90;;;;;;5066536;28;20057;-68
2021/09/25 06:54:34;;;;;;;37.00;12.20;;;17.10;99.90;;;;;;5084702;28;20051;-66
2021/09/25 06:57:01;;;;;;;27.00;11.65;;;17.20;99.90;;;;;;5084948;28;20055;-66
2021/09/25 06:59:26;;;;;;;27.25;11.80;;;17.20;99.90;;;;;;5084431;28;20040;-66
2021/09/25 07:01:52;;;;;;;30.58;11.90;;;17.30;99.90;;;;;;5074340;28;20063;-68
2021/09/25 07:04:18;;;;;;;33.88;12.23;;;17.30;99.90;;;;;;5085176;28;20048;-66
2021/09/25 07:06:44;;;;;;;24.63;11.85;;;17.30;99.90;;;;;;5085118;28;20048;-68
2021/09/25 07:09:09;;;;;;;38.00;13.10;;;17.30;99.90;;;;;;5084755;28;20044;-66
2021/09/25 07:11:35;;;;;;;34.53;12.43;;;17.30;99.90;;;;;;5084393;28;20560;-67
2021/09/25 07:14:02;;;;;;;27.40;12.05;;;17.40;99.90;;;;;;5085010;28;20124;-66
2021/09/25 07:16:28;;;;;;;29.85;11.68;;;17.40;99.90;;;;;;5094739;28;20055;-66
2021/09/25 07:18:53;;;;;;;33.00;12.20;;;17.40;99.90;;;;;;5084786;28;20044;-66
2021/09/25 07:21:19;;;;;;;35.00;12.95;;;17.50;99.90;;;;;;5084103;28;20051;-66
2021/09/25 07:23:45;;;;;;;22.15;11.43;;;17.50;99.90;;;;;;5087927;28;20099;-66
2021/09/25 07:26:11;;;;;;;29.15;11.40;;;17.50;99.90;;;;;;5094645;28;20048;-66
2021/09/25 07:28:36;;;;;;;32.97;12.02;;;17.60;99.90;;;;;;5084141;28;20043;-66
2021/09/25 07:31:03;;;;;;;31.50;12.23;;;17.70;99.90;;;;;;5086458;28;20041;-67
2021/09/25 07:33:29;;;;;;;28.63;11.03;;;17.70;99.90;;;;;;5072264;28;20056;-68
2021/09/25 07:35:55;;;;;;;27.10;10.90;;;17.80;99.90;;;;;;5077470;28;20081;-67
2021/09/25 07:38:21;;;;;;;25.52;9.75;;;17.90;99.90;;;;;;5099782;28;20546;-66
2021/09/25 07:40:46;;;;;;;24.75;10.35;;;18.00;99.90;;;;;;5096703;28;20032;-66
2021/09/25 07:43:12;;;;;;;30.67;10.13;;;18.00;99.90;;;;;;5084817;28;20116;-67
2021/09/25 07:45:38;;;;;;;37.70;10.57;;;18.10;99.90;;;;;;5095249;28;20116;-68
2021/09/25 07:48:04;;;;;;;22.33;9.75;;;18.20;99.90;;;;;;5101111;28;20054;-67
2021/09/25 07:50:30;;;;;;;22.35;9.95;;;18.30;99.90;;;;;;5075324;28;20063;-67
2021/09/25 07:52:56;;;;;;;23.50;9.68;;;18.30;99.90;;;;;;5085422;28;20055;-67
2021/09/25 07:55:23;;;;;;;24.55;9.77;;;18.40;99.90;;;;;;5076421;28;20041;-67
2021/09/25 07:57:49;;;;;;;22.60;7.95;;;18.40;99.90;;;;;;5102312;28;20059;-67
2021/09/25 08:00:15;;;;;;;22.08;8.82;;;18.50;99.90;;;;;;5095467;28;20076;-68
2021/09/25 08:02:42;;;;;;;24.30;9.40;;;18.60;99.90;;;;;;5100279;28;20036;-67
2021/09/25 08:05:09;;;;;;;22.92;7.88;;;18.70;99.90;;;;;;5078673;28;20048;-66
2021/09/25 08:07:34;;;;;;;22.40;7.30;;;18.70;99.90;;;;;;5082413;28;20056;-67
2021/09/25 08:10:00;;;;;;;15.07;7.88;;;18.70;99.90;;;;;;5078272;28;20063;-67
2021/09/25 08:12:26;;;;;;;22.58;6.57;;;18.70;99.90;;;;;;5094397;28;20091;-66
2021/09/25 08:14:51;;;;;;;21.05;6.90;;;18.70;99.90;;;;;;5097343;28;20047;-66
2021/09/25 08:17:20;;;;;;;15.25;6.38;;;18.70;99.90;;;;;;5080609;28;20048;-68
2021/09/25 08:19:46;;;;;;;14.73;5.57;;;18.80;99.90;;;;;;5102676;28;20094;-67
2021/09/25 08:22:12;;;;;;;15.35;6.53;;;18.80;99.90;;;;;;5102509;28;20074;-67
2021/09/25 08:24:38;;;;;;;14.68;6.90;;;18.80;99.90;;;;;;5099895;28;20084;-67
2021/09/25 08:27:04;;;;;;;11.75;5.10;;;18.80;99.90;;;;;;5097499;28;20048;-67
2021/09/25 08:29:29;;;;;;;17.88;6.15;;;18.80;99.90;;;;;;5092482;28;20590;-67
2021/09/25 08:31:55;;;;;;;14.73;5.88;;;18.90;99.90;;;;;;5094769;28;20047;-67
2021/09/25 08:34:20;;;;;;;17.45;6.72;;;18.90;99.90;;;;;;5094480;28;20058;-67
2021/09/25 08:36:46;;;;;;;20.13;7.32;;;18.80;99.90;;;;;;5091895;28;20052;-67
2021/09/25 08:39:12;;;;;;;18.85;7.15;;;18.80;99.90;;;;;;5098689;28;20067;-67
2021/09/25 08:41:40;;;;;;;14.45;6.57;;;19.00;99.90;;;;;;5089508;28;20049;-67
2021/09/25 08:44:06;;;;;;;18.67;6.45;;;19.10;99.90;;;;;;5096986;28;20495;-67
2021/09/25 08:46:33;;;;;;;16.73;6.88;;;19.20;99.90;;;;;;5101934;28;20067;-67
2021/09/25 08:48:59;;;;;;;23.50;7.10;;;19.20;99.90;;;;;;5106357;28;20066;-66
2021/09/25 08:51:24;;;;;;;20.10;6.10;;;19.30;99.90;;;;;;5106679;28;20044;-66
2021/09/25 08:53:50;;;;;;;16.52;6.32;;;19.40;99.90;;;;;;5094118;28;20044;-66
2021/09/25 08:56:16;;;;;;;18.05;5.28;;;19.40;99.90;;;;;;5103103;28;20040;-67
2021/09/25 08:58:44;;;;;;;16.05;6.20;;;19.40;99.90;;;;;;5098265;28;20068;-68
2021/09/25 09:01:20;;;;;;;15.98;6.75;;;19.60;99.90;;;;;;5103064;28;20067;-66
2021/09/25 09:03:48;;;;;;;12.98;4.97;;;19.60;99.90;;;;;;5093739;28;20106;-66
2021/09/25 09:06:20;;;;;;;13.52;5.55;;;19.50;99.90;;;;;;5093702;28;20044;-67
2021/09/25 09:08:49;;;;;;;12.38;6.35;;;19.60;99.90;;;;;;5089014;28;20096;-66
2021/09/25 09:11:17;;;;;;;17.15;5.25;;;19.40;99.90;;;;;;5088542;28;20055;-67
2021/09/25 09:13:43;;;;;;;;;;;19.40;99.90;;;;;;5094683;28;20068;-66
2021/09/25 09:16:10;;;;;;;20.80;6.03;;;19.50;99.90;;;;;;5074367;28;19928;-67
2021/09/25 09:18:40;;;;;;;16.38;5.60;;;19.60;99.90;;;;;;5084452;28;20463;-66
2021/09/25 09:21:26;;;;;;;21.35;5.40;;;19.80;99.90;;;;;;5104323;28;20044;-66
2021/09/25 09:23:55;;;;;;;12.73;5.47;;;20.00;99.90;;;;;;5106177;28;20040;-68
2021/09/25 09:26:51;;;;;;;12.90;5.05;;;20.00;99.90;;;;;;5102704;28;20041;-67
2021/09/25 09:29:17;;;;;;;20.02;6.68;;;20.10;99.90;;;;;;5076152;28;20058;-67
2021/09/25 09:31:43;;;;;;;13.38;5.13;;;20.10;99.90;;;;;;5102840;28;20068;-68
2021/09/25 09:34:09;;;;;;;10.82;5.00;;;20.30;99.90;;;;;;5098121;28;20393;-68
2021/09/25 09:36:35;;;;;;;9.50;4.50;;;20.30;99.90;;;;;;5104361;28;20056;-68
2021/09/25 09:39:18;;;;;;;14.15;4.88;;;20.30;99.90;;;;;;5086485;28;20591;-68
2021/09/25 09:41:58;;;;;;;13.75;4.97;;;20.40;99.90;;;;;;5099826;28;20125;-68
2021/09/25 09:44:29;;;;;;;11.18;4.75;;;20.30;99.90;;;;;;5099110;28;20490;-68
2021/09/25 09:47:04;;;;;;;11.05;5.00;;;20.20;99.90;;;;;;5095641;28;20036;-68
2021/09/25 09:49:29;;;;;;;17.42;5.07;;;20.30;99.90;;;;;;5105316;28;20048;-68
2021/09/25 09:52:09;;;;;;;12.23;5.13;;;20.50;99.90;;;;;;5083503;28;20044;-68
2021/09/25 09:54:44;;;;;;;12.75;5.15;;;20.60;99.90;;;;;;5084991;28;20047;-68
2021/09/25 09:57:13;;;;;;;12.60;4.40;;;20.80;99.90;;;;;;5102448;28;20040;-68
2021/09/25 09:59:40;;;;;;;8.75;4.30;;;20.80;99.90;;;;;;5104584;28;20101;-68
2021/09/25 10:02:06;;;;;;;11.82;4.93;;;20.70;99.90;;;;;;5099269;28;20040;-68
2021/09/25 10:04:32;;;;;;;9.73;4.50;;;20.60;99.90;;;;;;5098822;28;20056;-68
2021/09/25 10:06:58;;;;;;;14.05;4.50;;;20.40;99.90;;;;;;5098635;28;20051;-68
2021/09/25 10:09:26;;;;;;;10.85;4.82;;;20.50;99.90;;;;;;5100545;28;20040;-68
2021/09/25 10:11:54;;;;;;;15.07;5.55;;;20.50;99.90;;;;;;5098165;28;20096;-68
2021/09/25 10:14:47;;;;;;;8.63;4.28;;;20.50;99.90;;;;;;5098228;28;20041;-68
2021/09/25 10:17:15;;;;;;;10.13;5.18;;;20.50;99.90;;;;;;5083007;28;20040;-68
2021/09/25 10:19:43;;;;;;;14.98;6.18;;;20.70;99.90;;;;;;5081978;28;20483;-68
2021/09/25 10:22:12;;;;;;;;;;;20.70;99.90;;;;;;5097745;28;20039;-68
2021/09/25 10:24:47;;;;;;;12.93;5.32;;;20.70;99.90;;;;;;5098677;28;19921;-68
2021/09/25 10:27:15;;;;;;;17.50;5.50;;;20.80;99.90;;;;;;5102516;28;20043;-68
2021/09/25 10:29:45;;;;;;;;;;;20.80;99.90;;;;;;5100256;28;20085;-68
2021/09/25 10:32:27;;;;;;;12.30;5.38;;;20.80;99.90;;;;;;5085338;28;19928;-67
2021/09/25 10:35:16;;;;;;;14.48;5.55;;;20.80;99.90;;;;;;5105649;28;20047;-68
2021/09/25 10:37:57;;;;;;;11.13;5.20;;;21.00;99.90;;;;;;5096097;28;20040;-68
2021/09/25 10:40:26;;;;;;;12.13;4.75;;;21.10;99.90;;;;;;5082187;28;20166;-68
2021/09/25 10:43:00;;;;;;;10.88;4.90;;;21.00;99.90;;;;;;5099305;28;20035;-67
2021/09/25 10:45:37;;;;;;;17.83;4.80;;;21.20;99.90;;;;;;5096504;28;20038;-66
2021/09/25 10:48:07;;;;;;;10.27;5.17;;;21.50;99.90;;;;;;5096311;28;20036;-69
2021/09/25 10:50:36;;;;;;;10.23;6.35;;;21.70;99.90;;;;;;5094738;28;20666;-68
2021/09/25 10:53:17;;;;;;;16.42;6.07;;;21.60;99.90;;;;;;5097637;28;20045;-69
2021/09/25 10:55:46;;;;;;;13.80;5.05;;;21.70;99.90;;;;;;5099902;28;20099;-69
2021/09/25 10:58:21;;;;;;;7.60;4.57;;;21.90;99.90;;;;;;5103974;28;20032;-64
2021/09/25 11:00:48;;;;;;;10.57;5.47;;;21.60;99.90;;;;;;5105977;28;20040;-76
2021/09/25 11:06:14;;;;;;;11.20;3.92;;;21.40;99.90;;;;;;5100880;28;20548;-75
2021/09/25 11:09:03;;;;;;;11.10;4.25;;;21.60;99.90;;;;;;5102163;28;20104;-72
2021/09/25 11:11:35;;;;;;;;;;;21.60;99.90;;;;;;5094049;28;20088;-70
2021/09/25 11:14:00;;;;;;;13.00;4.53;;;21.80;99.90;;;;;;5103308;28;19919;-67
2021/09/25 11:16:46;;;;;;;10.95;3.80;;;21.90;99.90;;;;;;5095388;28;20040;-70
2021/09/25 11:19:29;;;;;;;10.18;4.40;;;21.80;99.90;;;;;;5094839;28;20078;-62
2021/09/25 11:22:07;;;;;;;6.47;3.28;;;21.90;99.90;;;;;;5102466;28;20063;-66
2021/09/25 11:24:48;;;;;;;11.10;3.38;;;21.90;99.90;;;;;;5077912;28;20151;-68
2021/09/25 11:27:18;;;;;;;8.30;3.65;;;22.00;99.90;;;;;;5089392;28;20408;-70
2021/09/25 11:30:03;;;;;;;9.07;4.18;;;22.10;99.90;;;;;;5088631;28;20049;-72
2021/09/25 11:32:31;;;;;;;8.10;3.65;;;22.10;99.90;;;;;;5093066;28;20109;-70
2021/09/25 11:35:00;;;;;;;6.78;2.17;;;22.00;99.90;;;;;;5079507;28;20091;-69
2021/09/25 11:37:29;;;;;;;8.93;2.08;;;22.00;99.90;;;;;;5096444;28;20049;-68
2021/09/25 11:39:55;;;;;;;9.48;3.53;;;22.00;99.90;;;;;;5100875;28;20043;-68
2021/09/25 11:42:27;;;;;;;7.78;2.80;;;22.10;99.90;;;;;;5100448;28;20048;-68
2021/09/25 11:45:04;;;;;;;6.43;2.50;;;22.20;99.90;;;;;;5098228;28;20039;-70
2021/09/25 11:47:35;;;;;;;6.43;2.85;;;22.30;99.90;;;;;;5101257;28;20040;-72
2021/09/25 11:50:19;;;;;;;12.00;3.67;;;22.40;99.90;;;;;;5095378;28;20046;-70
2021/09/25 11:52:54;;;;;;;13.25;4.35;;;22.40;99.90;;;;;;5096907;28;20048;-71
2021/09/25 11:55:22;;;;;;;10.55;3.53;;;22.20;99.90;;;;;;5097053;28;20074;-69
2021/09/25 11:57:54;;;;;;;14.45;4.50;;;22.20;99.90;;;;;;5075442;28;20040;-66
2021/09/25 12:00:24;;;;;;;11.43;5.43;;;22.10;99.90;;;;;;5097964;28;20039;-68
2021/09/25 12:02:51;;;;;;;13.10;5.07;;;22.00;99.90;;;;;;5099644;28;20068;-67
2021/09/25 12:05:40;;;;;;;11.20;5.07;;;21.90;99.90;;;;;;5098004;28;20090;-67
2021/09/25 12:08:10;;;;;;;12.20;4.50;;;21.70;99.90;;;;;;5102440;28;20032;-67
2021/09/25 12:10:37;;;;;;;12.02;4.80;;;21.60;99.90;;;;;;5097362;28;20040;-67
2021/09/25 12:13:04;;;;;;;;;;;21.60;99.90;;;;;;5079023;28;20056;-64
2021/09/25 12:15:40;;;;;;;13.43;5.25;;;21.50;99.90;;;;;;5100547;28;19920;-66
2021/09/25 12:18:17;;;;;;;15.32;6.57;;;21.40;99.90;;;;;;5089166;28;20042;-66
2021/09/25 12:20:48;;;;;;;15.40;5.75;;;21.30;99.90;;;;;;5083636;28;20286;-68
2021/09/25 12:23:18;;;;;;;14.93;6.75;;;21.30;99.90;;;;;;5101149;28;20083;-68
2021/09/25 12:25:44;;;;;;;14.90;6.63;;;21.30;99.90;;;;;;5102558;28;20036;-70
2021/09/25 12:28:30;;;;;;;12.45;7.40;;;21.10;99.90;;;;;;5104435;28;20043;-69
2021/09/25 12:31:02;;;;;;;12.65;6.22;;;21.10;99.90;;;;;;5104726;28;20093;-67
2021/09/25 12:33:28;;;;;;;15.13;5.78;;;21.10;99.90;;;;;;5104094;28;20078;-68
2021/09/25 12:36:00;;;;;;;16.67;8.48;;;21.10;99.90;;;;;;5095681;28;20040;-66
2021/09/25 12:38:35;;;;;;;17.42;7.78;;;21.10;99.90;;;;;;5096232;28;20044;-68
2021/09/25 12:41:04;;;;;;;13.15;7.72;;;21.10;99.90;;;;;;5104093;28;20044;-67